Aviation Digital Data Service (ADDS)

Output produced by METARs form (1204 UTC 21 September 2018)
found at http://www.aviationweather.gov/metar/data/
 
METAR text: OAIX 211135Z 13016G22KT 1000 -TSRA BLDU BKN085 26/06 A2997 RMK RAB01E10B17 TSB18 SLP062
Conditions at: OAIX (BAGRAM , AF) observed 1135 UTC 21 September 2018
Temperature: 26.0°C (79°F)
Dewpoint: 6.0°C (43°F) [RH = 28%]
Pressure (altimeter): 29.97 inches Hg (1015.0 mb)
[Sea-level pressure: 1006.2 mb]
Winds: from the SE (130 degrees) at 18 MPH (16 knots; 8.2 m/s)
gusting to 25 MPH (22 knots; 11.3 m/s)
Visibility: 0.62 miles (1.00 km)
Ceiling: 8500 feet AGL
Clouds: broken clouds at 8500 feet AGL
Weather: -TSRA BLDU  (light rain associated with thunderstorm(s), blowing dust)

METAR text: OAIX 211118Z 12017G23KT 1600 -TSRA BLDU BKN085CB 26/09 A2996 RMK AO2A RAB01E10B17 TSB18 SLP059 $
Conditions at: OAIX (BAGRAM , AF) observed 1118 UTC 21 September 2018
Temperature: 26.0°C (79°F)
Dewpoint: 9.0°C (48°F) [RH = 34%]
Pressure (altimeter): 29.96 inches Hg (1014.6 mb)
[Sea-level pressure: 1005.9 mb]
Winds: from the ESE (120 degrees) at 20 MPH (17 knots; 8.7 m/s)
gusting to 26 MPH (23 knots; 11.8 m/s)
Visibility: 0.99 miles (1.59 km)
Ceiling: 8500 feet AGL
Clouds: broken clouds at 8500 feet AGL
Weather: -TSRA BLDU  (light rain associated with thunderstorm(s), blowing dust)
SOME DATA ABOVE MAY BE INACCURATE!!!
"$" is an indication the sensor requires maintenance

METAR text: OAIX 211114Z 11019G23KT 1600 -RA BLDU BKN085 26/10 A2995 RMK LTG DSNT SE-W RAB01E10B17 SLP055 $
Conditions at: OAIX (BAGRAM , AF) observed 1114 UTC 21 September 2018
Temperature: 26.0°C (79°F)
Dewpoint: 10.0°C (50°F) [RH = 37%]
Pressure (altimeter): 29.95 inches Hg (1014.3 mb)
[Sea-level pressure: 1005.5 mb]
Winds: from the ESE (110 degrees) at 22 MPH (19 knots; 9.8 m/s)
gusting to 26 MPH (23 knots; 11.8 m/s)
Visibility: 0.99 miles (1.59 km)
Ceiling: 8500 feet AGL
Clouds: broken clouds at 8500 feet AGL
Weather: -RA BLDU  (light rain, blowing dust)
SOME DATA ABOVE MAY BE INACCURATE!!!
"$" is an indication the sensor requires maintenance

METAR text: OAIX 211110Z 13016G23KT 1600 BLDU BKN085 26/10 A2996 RMK AO2A LTG DSNT SE-W RAB01E10 SLP059 $
Conditions at: OAIX (BAGRAM , AF) observed 1110 UTC 21 September 2018
Temperature: 26.0°C (79°F)
Dewpoint: 10.0°C (50°F) [RH = 37%]
Pressure (altimeter): 29.96 inches Hg (1014.6 mb)
[Sea-level pressure: 1005.9 mb]
Winds: from the SE (130 degrees) at 18 MPH (16 knots; 8.2 m/s)
gusting to 26 MPH (23 knots; 11.8 m/s)
Visibility: 0.99 miles (1.59 km)
Ceiling: 8500 feet AGL
Clouds: broken clouds at 8500 feet AGL
Weather: BLDU  (blowing dust)
SOME DATA ABOVE MAY BE INACCURATE!!!
"$" is an indication the sensor requires maintenance

METAR text: OAIX 211101Z 12016G25KT 1600 -RA BLDU BKN085 26/10 A2996 RMK LTG DSNT SE RAB01 SLP061 $
Conditions at: OAIX (BAGRAM , AF) observed 1101 UTC 21 September 2018
Temperature: 26.0°C (79°F)
Dewpoint: 10.0°C (50°F) [RH = 37%]
Pressure (altimeter): 29.96 inches Hg (1014.6 mb)
[Sea-level pressure: 1006.1 mb]
Winds: from the ESE (120 degrees) at 18 MPH (16 knots; 8.2 m/s)
gusting to 29 MPH (25 knots; 12.9 m/s)
Visibility: 0.99 miles (1.59 km)
Ceiling: 8500 feet AGL
Clouds: broken clouds at 8500 feet AGL
Weather: -RA BLDU  (light rain, blowing dust)
SOME DATA ABOVE MAY BE INACCURATE!!!
"$" is an indication the sensor requires maintenance

METAR text: OAIX 211058Z 12017G23KT 1000 BLDU OVC085 26/10 A2996 RMK AO2A PK WND 13027/33 LTG DSNT SE RAB10E22 SLP061 $
Conditions at: OAIX (BAGRAM , AF) observed 1058 UTC 21 September 2018
Temperature: 26.0°C (79°F)
Dewpoint: 10.0°C (50°F) [RH = 37%]
Pressure (altimeter): 29.96 inches Hg (1014.6 mb)
[Sea-level pressure: 1006.1 mb]
Winds: from the ESE (120 degrees) at 20 MPH (17 knots; 8.7 m/s)
gusting to 26 MPH (23 knots; 11.8 m/s)
Visibility: 0.62 miles (1.00 km)
Ceiling: 8500 feet AGL
Clouds: overcast cloud deck at 8500 feet AGL
Weather: BLDU  (blowing dust)
SOME DATA ABOVE MAY BE INACCURATE!!!
"$" is an indication the sensor requires maintenance

METAR text: OAIX 211050Z 12018G21KT 1000 BLDU BKN085 27/09 A2996 RMK LTG DSNT SE SLP059
Conditions at: OAIX (BAGRAM , AF) observed 1050 UTC 21 September 2018
Temperature: 27.0°C (81°F)
Dewpoint: 9.0°C (48°F) [RH = 32%]
Pressure (altimeter): 29.96 inches Hg (1014.6 mb)
[Sea-level pressure: 1005.9 mb]
Winds: from the ESE (120 degrees) at 21 MPH (18 knots; 9.3 m/s)
gusting to 24 MPH (21 knots; 10.8 m/s)
Visibility: 0.62 miles (1.00 km)
Ceiling: 8500 feet AGL
Clouds: broken clouds at 8500 feet AGL
Weather: BLDU  (blowing dust)

METAR text: OAIX 211040Z 12018G27KT 2000 BLDU BKN085 27/10 A2996 RMK SLP059 $
Conditions at: OAIX (BAGRAM , AF) observed 1040 UTC 21 September 2018
Temperature: 27.0°C (81°F)
Dewpoint: 10.0°C (50°F) [RH = 34%]
Pressure (altimeter): 29.96 inches Hg (1014.6 mb)
[Sea-level pressure: 1005.9 mb]
Winds: from the ESE (120 degrees) at 21 MPH (18 knots; 9.3 m/s)
gusting to 31 MPH (27 knots; 13.9 m/s)
Visibility: 1.24 miles (2.00 km)
Ceiling: 8500 feet AGL
Clouds: broken clouds at 8500 feet AGL
Weather: BLDU  (blowing dust)
SOME DATA ABOVE MAY BE INACCURATE!!!
"$" is an indication the sensor requires maintenance

METAR text: OAIX 210858Z AUTO 02008KT 9999 FEW080 SCT340 29/11 A3000 RMK AO2 SLP070 T02910112 57030 $
Conditions at: OAIX (BAGRAM , AF) observed 0858 UTC 21 September 2018
Temperature: 29.1°C (84°F)
Dewpoint: 11.2°C (52°F) [RH = 33%]
Pressure (altimeter): 30.00 inches Hg (1016.0 mb)
[Sea-level pressure: 1007.0 mb]
Winds: from the NNE (20 degrees) at 9 MPH (8 knots; 4.1 m/s)
Visibility: 6 or more miles (10+ km)
Ceiling: at least 12,000 feet AGL
Clouds: few clouds at 8000 feet AGL
scattered clouds at 34000 feet AGL
Weather:
SOME DATA ABOVE MAY BE INACCURATE!!!
"$" is an indication the sensor requires maintenance

Forecast for: AMD
Text: TAF AMD OAIX 211110Z 2111/2213 12015G25KT 2400 DU VCTS FEW080 BKN140CB QNH2995INS
Forecast period: 1100 to 1400 UTC 21 September 2018
Forecast type: FROM: standard forecast or significant change
Winds: from the ESE (120 degrees) at 17 MPH (15 knots; 7.7 m/s)
gusting to 29 MPH (25 knots; 12.9 m/s)
Visibility: 1.49 miles (2.40 km)
Ceiling: 14000 feet AGL
Clouds: few clouds at 8000 feet AGL
broken clouds at 14000 feet AGL
Weather: DU VCTS  (widespread dust, thunderstorm in vicinity)
Text: TEMPO 2111/2113 13025G35KT 0800 -TSRA BKN100CB
Forecast period: 1100 to 1300 UTC 21 September 2018
Forecast type: TEMPORARY: The following changes expected for less than half the time period
Winds: from the SE (130 degrees) at 29 MPH (25 knots; 12.9 m/s)
gusting to 40 MPH (35 knots; 18.0 m/s)
Visibility: 0.50 miles (0.80 km)
Ceiling: 10000 feet AGL
Clouds: broken clouds at 10000 feet AGL
Weather: -TSRA  (light rain associated with thunderstorm(s))
Text: BECMG 2114/2115 VRB06KT 4000 DU SCT140 QNH2996INS
Forecast period: 1400 to 1600 UTC 21 September 2018
Forecast type: BECOMING: Conditions expected to become as follows by 1500 UTC 21 September 2018
Winds: variable direction winds at 7 MPH (6 knots; 3.1 m/s)
Visibility: 2.49 miles (4.01 km)
Ceiling: at least 12,000 feet AGL
Clouds: scattered clouds at 14000 feet AGL
Weather: DU  (widespread dust)
Text: BECMG 2116/2117 VRB06KT 6000 HZ SCT140 QNH2997INS
Forecast period: 1600 UTC 21 September 2018 to 0800 UTC 22 September 2018
Forecast type: BECOMING: Conditions expected to become as follows by 1700 UTC 21 September 2018
Winds: variable direction winds at 7 MPH (6 knots; 3.1 m/s)
Visibility: 4 miles (6 km)
Ceiling: at least 12,000 feet AGL
Clouds: scattered clouds at 14000 feet AGL
Weather: HZ  (haze)
Text: TEMPO 2206/2209 VCTS BKN120CB
Forecast period: 0600 to 0900 UTC 22 September 2018
Forecast type: TEMPORARY: The following changes expected for less than half the time period
Visibility: missing
Ceiling: 12000 feet AGL
Clouds: broken clouds at 12000 feet AGL
Weather: VCTS  (thunderstorm in vicinity)
Text: BECMG 2208/2209 14012G18KT 9999 NSW SCT120 QNH2991INS
Forecast period: 0800 to 1300 UTC 22 September 2018
Forecast type: BECOMING: Conditions expected to become as follows by 0900 UTC 22 September 2018
Winds: from the SE (140 degrees) at 14 MPH (12 knots; 6.2 m/s)
gusting to 21 MPH (18 knots; 9.3 m/s)
Visibility: 6 or more miles 10+ km)
Ceiling: at least 12,000 feet AGL
Clouds: scattered clouds at 12000 feet AGL
Weather: NSW  (no significant weather)
Text: TEMPO 2209/2213 16015G25KT VCTS BKN100CB TX31/2209Z TN16/2202Z
Forecast period: 0900 to 1300 UTC 22 September 2018
Forecast type: TEMPORARY: The following changes expected for less than half the time period
Winds: from the SSE (160 degrees) at 17 MPH (15 knots; 7.7 m/s)
gusting to 29 MPH (25 knots; 12.9 m/s)
Visibility: missing
Ceiling: 10000 feet AGL
Clouds: broken clouds at 10000 feet AGL
Weather: VCTS  (thunderstorm in vicinity)